createdAt,value
2023-04-23T00:00:33.869Z,98085.56
2023-04-23T00:03:10.592Z,98092.59
2023-04-23T00:05:37.913Z,98081.56
2023-04-23T00:08:05.815Z,98090.38
2023-04-23T00:10:32.687Z,98087.78
2023-04-23T00:12:59.588Z,98077.44
2023-04-23T00:15:26.647Z,98078.63
2023-04-23T00:17:53.380Z,98074.28
2023-04-23T00:20:20.282Z,98077.56
2023-04-23T00:22:46.843Z,98073.38
2023-04-23T00:25:13.544Z,98084.94
2023-04-23T00:27:40.254Z,98080.59
2023-04-23T00:30:09.041Z,98081.28
2023-04-23T00:32:35.926Z,98082.38
2023-04-23T00:35:02.644Z,98076.09
2023-04-23T00:37:29.498Z,98080.91
2023-04-23T00:39:56.452Z,98080.78
2023-04-23T00:42:23.198Z,98073.97
2023-04-23T00:44:51.524Z,98072.22
2023-04-23T00:47:18.455Z,98077.28
2023-04-23T00:49:45.604Z,98067.91
2023-04-23T00:52:12.234Z,98063.56
2023-04-23T00:54:39.038Z,98069.22
2023-04-23T00:57:08.018Z,98075.31
2023-04-23T00:59:36.154Z,98070.91
2023-04-23T01:02:02.948Z,98064.19
2023-04-23T01:04:32.177Z,98056.91
2023-04-23T01:06:59.853Z,98047.28
2023-04-23T01:09:27.874Z,98057.84
2023-04-23T01:11:55.182Z,98060.19
2023-04-23T01:14:21.810Z,98061.94
2023-04-23T01:16:49.403Z,98060.56
2023-04-23T01:19:16.338Z,98070.47
2023-04-23T01:21:43.136Z,98066.59
2023-04-23T01:24:10.477Z,98062.13
2023-04-23T01:26:37.556Z,98066.47
2023-04-23T01:29:05.490Z,98060.72
2023-04-23T01:31:33.116Z,98067.63
2023-04-23T01:34:00.402Z,98060.72
2023-04-23T01:36:28.012Z,98056.97
2023-04-23T01:38:57.770Z,98057.47
2023-04-23T01:41:24.725Z,98056.31
2023-04-23T01:43:51.913Z,98066.50
2023-04-23T01:46:18.787Z,98062.97
2023-04-23T01:48:45.655Z,98060.41
2023-04-23T01:51:12.303Z,98060.28
2023-04-23T01:53:38.992Z,98044.03
2023-04-23T01:56:06.616Z,98035.22
2023-04-23T01:58:33.290Z,98053.94
2023-04-23T02:01:00.043Z,98055.78
2023-04-23T02:03:26.946Z,98052.78
2023-04-23T02:05:55.497Z,98068.00
2023-04-23T02:08:22.881Z,98063.09
2023-04-23T02:10:49.635Z,98056.75
2023-04-23T02:13:16.388Z,98066.38
2023-04-23T02:15:43.318Z,98060.25
2023-04-23T02:18:10.928Z,98062.59
2023-04-23T02:20:40.773Z,98069.50
2023-04-23T02:23:08.402Z,98057.66
2023-04-23T02:25:38.436Z,98054.03
2023-04-23T02:28:07.340Z,98063.66
2023-04-23T02:30:34.960Z,98063.56
2023-04-23T02:33:01.847Z,98062.25
2023-04-23T02:35:28.586Z,98059.09
2023-04-23T02:37:56.181Z,98057.66
2023-04-23T02:40:23.034Z,98061.16
2023-04-23T02:42:50.997Z,98066.81
2023-04-23T02:45:17.908Z,98064.13
2023-04-23T02:47:44.746Z,98054.13
2023-04-23T02:50:11.488Z,98045.09
2023-04-23T02:52:38.297Z,98054.81
2023-04-23T02:55:05.977Z,98043.88
2023-04-23T02:57:32.847Z,98031.84
2023-04-23T02:59:59.649Z,98043.78
2023-04-23T03:02:33.612Z,98038.16
2023-04-23T03:05:00.921Z,98047.31
2023-04-23T03:07:27.724Z,98042.97
2023-04-23T03:09:54.411Z,98050.97
2023-04-23T03:12:21.036Z,98046.41
2023-04-23T03:14:47.700Z,98042.41
2023-04-23T03:17:14.527Z,98045.81
2023-04-23T03:19:43.870Z,98042.84
2023-04-23T03:22:11.103Z,98046.16
2023-04-23T03:24:37.854Z,98041.13
2023-04-23T03:27:04.638Z,98046.00
2023-04-23T03:29:31.962Z,98032.03
2023-04-23T03:31:59.985Z,98018.53
2023-04-23T03:34:26.859Z,98023.56
2023-04-23T03:36:53.477Z,98029.53
2023-04-23T03:39:20.396Z,98035.44
2023-04-23T03:41:50.642Z,98031.44
2023-04-23T03:44:20.458Z,98033.09
2023-04-23T03:46:47.180Z,98032.97
2023-04-23T03:49:16.787Z,98043.78
2023-04-23T03:51:44.130Z,98038.13
2023-04-23T03:54:11.294Z,98043.88
2023-04-23T03:56:57.710Z,98027.69
2023-04-23T03:59:28.233Z,98037.94
2023-04-23T04:01:58.674Z,98037.94
2023-04-23T04:04:26.804Z,98029.06
2023-04-23T04:06:55.616Z,98027.63
2023-04-23T04:09:27.515Z,98022.66
2023-04-23T04:11:54.570Z,98028.63
2023-04-23T04:14:22.232Z,98034.91
2023-04-23T04:16:49.459Z,98041.72
2023-04-23T04:19:16.289Z,98045.09
2023-04-23T04:21:42.953Z,98038.75
2023-04-23T04:24:11.556Z,98044.09
2023-04-23T04:26:38.301Z,98044.19
2023-04-23T04:29:04.953Z,98034.81
2023-04-23T04:31:32.397Z,98035.16
2023-04-23T04:33:59.055Z,98043.28
2023-04-23T04:36:27.219Z,98031.00
2023-04-23T04:38:56.165Z,98034.53
2023-04-23T04:41:25.426Z,98023.69
2023-04-23T04:43:52.354Z,98021.69
2023-04-23T04:46:21.913Z,98028.22
2023-04-23T04:48:48.743Z,98033.78
2023-04-23T04:51:16.048Z,98027.50
2023-04-23T04:53:42.846Z,98024.41
2023-04-23T04:56:09.820Z,98035.03
2023-04-23T04:58:36.535Z,98037.72
2023-04-23T05:01:03.382Z,98021.75
2023-04-23T05:03:30.533Z,98031.88
2023-04-23T05:05:58.695Z,98030.91
2023-04-23T05:08:25.676Z,98031.66
2023-04-23T05:10:54.085Z,98033.31
2023-04-23T05:13:20.695Z,98028.03
2023-04-23T05:15:47.445Z,98028.44
2023-04-23T05:18:14.073Z,98037.47
2023-04-23T05:20:41.570Z,98025.63
2023-04-23T05:23:08.433Z,98039.13
2023-04-23T05:25:35.754Z,98031.28
2023-04-23T05:28:02.539Z,98031.50
2023-04-23T05:30:29.480Z,98038.75
2023-04-23T05:32:56.327Z,98032.78
2023-04-23T05:35:23.034Z,98045.00
2023-04-23T05:37:49.698Z,98035.66
2023-04-23T05:40:16.947Z,98032.25
2023-04-23T05:42:43.614Z,98042.63
2023-04-23T05:45:11.087Z,98034.31
2023-04-23T05:47:37.928Z,98029.63
2023-04-23T05:50:05.770Z,98043.13
2023-04-23T05:52:33.576Z,98041.59
2023-04-23T05:55:00.301Z,98045.94
2023-04-23T05:57:26.850Z,98047.47
2023-04-23T05:59:53.504Z,98051.44
2023-04-23T06:02:22.528Z,98050.19
2023-04-23T06:04:50.998Z,98046.34
2023-04-23T06:07:17.823Z,98051.63
2023-04-23T06:09:44.544Z,98054.00
2023-04-23T06:12:11.377Z,98035.34
2023-04-23T06:14:38.233Z,98047.78
2023-04-23T06:17:04.896Z,98052.72
2023-04-23T06:19:31.575Z,98049.94
2023-04-23T06:21:58.309Z,98047.47
2023-04-23T06:24:25.024Z,98058.59
2023-04-23T06:26:51.654Z,98055.09
2023-04-23T06:29:20.607Z,98056.69
2023-04-23T06:32:13.315Z,98060.13
2023-04-23T06:34:46.707Z,98055.91
2023-04-23T06:37:16.728Z,98049.94
2023-04-23T06:39:43.403Z,98050.16
2023-04-23T06:42:10.312Z,98045.94
2023-04-23T06:44:55.410Z,98040.53
2023-04-23T06:47:22.185Z,98042.78
2023-04-23T06:49:48.841Z,98035.78
2023-04-23T06:52:15.537Z,98022.50
2023-04-23T06:54:42.457Z,98034.50
2023-04-23T06:57:09.642Z,98034.53
2023-04-23T06:59:36.242Z,98045.31
2023-04-23T07:02:03.062Z,98039.47
2023-04-23T07:04:29.897Z,98041.00
2023-04-23T07:06:57.346Z,98035.94
2023-04-23T07:09:23.970Z,98032.66
2023-04-23T07:11:51.065Z,98034.78
2023-04-23T07:14:17.729Z,98027.25
2023-04-23T07:16:44.498Z,98018.84
2023-04-23T07:19:11.315Z,98020.59
2023-04-23T07:21:38.204Z,98015.31
2023-04-23T07:24:07.888Z,98020.00
2023-04-23T07:26:35.750Z,98018.25
2023-04-23T07:29:04.504Z,98019.53
2023-04-23T07:31:31.477Z,98014.63
2023-04-23T07:33:58.148Z,98011.59
2023-04-23T07:36:24.938Z,98011.69
2023-04-23T07:38:51.574Z,98009.03
2023-04-23T07:41:18.452Z,98002.91
2023-04-23T07:43:45.344Z,98003.63
2023-04-23T07:46:12.410Z,98003.41
2023-04-23T07:48:39.398Z,98006.22
2023-04-23T07:51:06.718Z,98000.59
2023-04-23T07:53:33.470Z,97994.38
2023-04-23T07:56:00.735Z,98000.09
2023-04-23T07:58:27.423Z,98007.75
2023-04-23T08:00:54.128Z,98013.00
2023-04-23T08:03:21.215Z,98005.38
2023-04-23T08:05:48.217Z,98013.25
2023-04-23T08:08:14.861Z,98006.91
2023-04-23T08:10:41.796Z,97999.91
2023-04-23T08:13:08.579Z,98010.22
2023-04-23T08:15:35.429Z,98013.25
2023-04-23T08:18:03.266Z,98012.44
2023-04-23T08:20:30.155Z,98019.13
2023-04-23T08:22:56.827Z,98015.47
2023-04-23T08:25:23.643Z,98013.72
2023-04-23T08:27:50.429Z,98015.38
2023-04-23T08:30:17.161Z,98015.94
2023-04-23T08:32:43.801Z,98017.72
2023-04-23T08:35:10.608Z,98016.31
2023-04-23T08:37:39.055Z,98004.09
2023-04-23T08:40:07.644Z,98020.88
2023-04-23T08:42:49.045Z,98026.41
2023-04-23T08:45:15.820Z,98026.41
2023-04-23T08:47:43.592Z,98021.38
2023-04-23T08:50:19.793Z,98017.25
2023-04-23T08:52:49.773Z,98026.66
2023-04-23T08:55:16.713Z,98022.91
2023-04-23T08:57:47.119Z,98016.91
2023-04-23T09:00:17.131Z,98020.88
2023-04-23T09:02:46.015Z,98009.97
2023-04-23T09:05:13.825Z,98024.50
2023-04-23T09:07:41.914Z,98020.16
2023-04-23T09:10:17.750Z,98021.91
2023-04-23T09:12:45.545Z,98021.91
2023-04-23T09:15:13.784Z,98019.91
2023-04-23T09:17:46.338Z,98011.94
2023-04-23T09:20:14.750Z,98015.00
2023-04-23T09:22:46.021Z,98012.53
2023-04-23T09:25:16.556Z,98013.22
2023-04-23T09:27:43.863Z,98012.53
2023-04-23T09:30:12.118Z,98013.84
2023-04-23T09:32:43.731Z,98007.28
2023-04-23T09:35:13.703Z,97991.19
2023-04-23T09:37:48.626Z,97992.59
2023-04-23T09:40:20.580Z,98001.06
2023-04-23T09:42:55.816Z,97987.53
2023-04-23T09:45:24.221Z,97992.81
2023-04-23T09:47:54.304Z,97994.91
2023-04-23T09:50:41.741Z,97980.81
2023-04-23T09:53:09.801Z,97992.53
2023-04-23T09:55:43.606Z,97991.34
2023-04-23T09:58:15.429Z,97989.56
2023-04-23T10:00:42.710Z,97981.03
2023-04-23T10:03:10.254Z,97985.63
2023-04-23T10:08:16.119Z,97978.59
2023-04-23T10:13:16.459Z,97974.31
2023-04-23T10:15:46.375Z,97973.06
2023-04-23T10:18:15.061Z,97970.69
2023-04-23T10:20:42.837Z,97978.69
2023-04-23T10:23:10.766Z,97974.78
2023-04-23T10:25:39.501Z,97972.19
2023-04-23T10:28:08.192Z,97970.16
2023-04-23T10:30:36.479Z,97964.63
2023-04-23T10:33:06.091Z,97949.81
2023-04-23T10:35:36.198Z,97951.72
2023-04-23T10:38:03.627Z,97948.78
2023-04-23T10:40:33.496Z,97949.19
2023-04-23T10:43:01.364Z,97948.59
2023-04-23T10:45:30.844Z,97945.38
2023-04-23T10:47:59.075Z,97938.88
2023-04-23T10:50:28.297Z,97934.50
2023-04-23T10:52:57.667Z,97931.66
2023-04-23T10:55:27.435Z,97928.91
2023-04-23T10:58:05.897Z,97920.63
2023-04-23T11:00:41.928Z,97921.00
2023-04-23T11:03:43.358Z,97920.34
2023-04-23T11:06:17.502Z,97918.69
2023-04-23T11:08:54.090Z,97916.53
2023-04-23T11:11:39.763Z,97918.03
2023-04-23T11:14:16.125Z,97906.88
2023-04-23T11:16:42.968Z,97914.78
2023-04-23T11:19:16.686Z,97903.84
2023-04-23T11:22:04.773Z,97902.28
2023-04-23T11:24:43.392Z,97898.41
2023-04-23T11:27:11.192Z,97891.84
2023-04-23T11:29:40.636Z,97891.38
2023-04-23T11:32:13.030Z,97893.91
2023-04-23T11:34:41.875Z,97893.25
2023-04-23T11:37:11.362Z,97883.81
2023-04-23T11:39:39.137Z,97876.78
2023-04-23T11:42:16.069Z,97878.41
2023-04-23T11:44:44.256Z,97873.94
2023-04-23T11:47:12.820Z,97878.13
2023-04-23T11:49:44.660Z,97873.75
2023-04-23T11:52:12.147Z,97863.97
2023-04-23T11:54:41.520Z,97863.75
2023-04-23T11:57:08.540Z,97863.59
2023-04-23T11:59:35.315Z,97861.72
2023-04-23T12:02:02.166Z,97857.47
2023-04-23T12:04:30.522Z,97854.63
2023-04-23T12:06:59.047Z,97844.00
2023-04-23T12:09:29.522Z,97841.81
2023-04-23T12:11:58.574Z,97834.53
2023-04-23T12:14:30.747Z,97832.13
2023-04-23T12:17:08.682Z,97828.66
2023-04-23T12:19:35.583Z,97824.94
2023-04-23T12:22:03.871Z,97818.13
2023-04-23T12:24:44.727Z,97822.00
2023-04-23T12:27:15.714Z,97817.13
2023-04-23T12:29:42.995Z,97807.31
2023-04-23T12:32:12.108Z,97815.09
2023-04-23T12:34:53.109Z,97812.09
2023-04-23T12:37:27.298Z,97804.84
2023-04-23T12:39:56.350Z,97802.66
2023-04-23T12:42:24.252Z,97800.66
2023-04-23T12:44:51.802Z,97796.06
2023-04-23T12:47:19.861Z,97803.75
2023-04-23T12:49:46.999Z,97789.09
2023-04-23T12:52:14.262Z,97797.31
2023-04-23T12:54:41.196Z,97788.84
2023-04-23T12:57:11.084Z,97784.47
2023-04-23T12:59:38.328Z,97780.34
2023-04-23T13:02:06.778Z,97788.66
2023-04-23T13:04:35.639Z,97776.63
2023-04-23T13:07:02.446Z,97784.66
2023-04-23T13:09:30.149Z,97778.44
2023-04-23T13:11:57.357Z,97782.94
2023-04-23T13:14:24.168Z,97782.13
2023-04-23T13:16:51.082Z,97783.84
2023-04-23T13:19:17.873Z,97776.81
2023-04-23T13:21:45.308Z,97782.22
2023-04-23T13:24:12.068Z,97782.22
2023-04-23T13:26:38.778Z,97773.59
2023-04-23T13:29:06.181Z,97769.88
2023-04-23T13:31:35.612Z,97763.34
2023-04-23T13:34:09.609Z,97774.47
2023-04-23T13:36:42.256Z,97762.41
2023-04-23T13:39:17.554Z,97764.47
2023-04-23T13:41:47.876Z,97756.56
2023-04-23T13:44:23.130Z,97749.88
2023-04-23T13:46:54.360Z,97755.72
2023-04-23T13:49:23.375Z,97746.00
2023-04-23T13:51:54.000Z,97740.16
2023-04-23T13:54:22.655Z,97743.25
2023-04-23T13:56:53.538Z,97738.38
2023-04-23T13:59:25.099Z,97739.38
2023-04-23T14:01:53.676Z,97743.09
2023-04-23T14:04:27.128Z,97744.19
2023-04-23T14:06:56.684Z,97730.53
2023-04-23T14:09:27.820Z,97740.56
2023-04-23T14:11:59.059Z,97742.88
2023-04-23T14:14:29.000Z,97744.44
2023-04-23T14:16:58.045Z,97749.59
2023-04-23T14:19:26.835Z,97741.72
2023-04-23T14:21:56.063Z,97741.00
2023-04-23T14:24:30.062Z,97735.28
2023-04-23T14:26:59.352Z,97732.03
2023-04-23T14:29:43.064Z,97733.44
2023-04-23T14:32:14.183Z,97727.69
2023-04-23T14:34:45.828Z,97730.31
2023-04-23T14:37:20.528Z,97728.00
2023-04-23T14:39:47.908Z,97732.03
2023-04-23T14:42:14.576Z,97722.75
2023-04-23T14:44:41.351Z,97725.28
2023-04-23T14:47:10.142Z,97721.56
2023-04-23T14:49:36.874Z,97717.28
2023-04-23T14:52:03.699Z,97710.59
2023-04-23T14:54:30.678Z,97715.13
2023-04-23T14:56:57.264Z,97715.56
2023-04-23T14:59:23.970Z,97713.66
2023-04-23T15:01:50.809Z,97710.66
2023-04-23T15:04:17.577Z,97704.13
2023-04-23T15:06:44.381Z,97710.13
2023-04-23T15:09:11.167Z,97703.88
2023-04-23T15:11:38.682Z,97704.88
2023-04-23T15:14:05.382Z,97693.44
2023-04-23T15:19:06.625Z,97692.25
2023-04-23T15:21:33.367Z,97696.63
2023-04-23T15:24:01.064Z,97691.13
2023-04-23T15:26:30.667Z,97675.84
2023-04-23T15:28:58.457Z,97677.03
2023-04-23T15:31:25.275Z,97676.31
2023-04-23T15:33:52.030Z,97677.66
2023-04-23T15:36:18.674Z,97681.72
2023-04-23T15:38:45.611Z,97680.09
2023-04-23T15:41:13.647Z,97671.63
2023-04-23T15:43:40.275Z,97668.22
2023-04-23T15:46:06.990Z,97669.09
2023-04-23T15:48:33.725Z,97664.50
2023-04-23T15:51:02.438Z,97660.31
2023-04-23T15:53:33.059Z,97652.38
2023-04-23T15:56:01.616Z,97654.13
2023-04-23T15:58:30.358Z,97645.53
2023-04-23T16:01:03.733Z,97645.91
2023-04-23T16:03:31.369Z,97644.72
2023-04-23T16:05:59.447Z,97633.31
2023-04-23T16:08:30.096Z,97637.53
2023-04-23T16:11:00.160Z,97625.94
2023-04-23T16:13:29.272Z,97628.03
2023-04-23T16:15:59.964Z,97627.97
2023-04-23T16:18:30.104Z,97617.13
2023-04-23T16:21:00.617Z,97617.66
2023-04-23T16:23:29.441Z,97622.16
2023-04-23T16:25:58.178Z,97626.75
2023-04-23T16:28:25.024Z,97621.03
2023-04-23T16:30:52.798Z,97615.03
2023-04-23T16:33:25.296Z,97613.34
2023-04-23T16:35:55.428Z,97610.16
2023-04-23T16:38:24.087Z,97611.28
2023-04-23T16:40:53.181Z,97610.16
2023-04-23T16:43:27.009Z,97623.00
2023-04-23T16:45:55.168Z,97627.00
2023-04-23T16:48:22.506Z,97637.44
2023-04-23T16:50:51.395Z,97628.56
2023-04-23T16:53:18.845Z,97620.84
2023-04-23T16:55:49.736Z,97621.34
2023-04-23T16:58:23.928Z,97615.59
2023-04-23T17:00:53.288Z,97607.31
2023-04-23T17:03:21.730Z,97609.38
2023-04-23T17:05:54.940Z,97606.94
2023-04-23T17:08:21.734Z,97600.56
2023-04-23T17:10:48.425Z,97601.66
2023-04-23T17:13:15.233Z,97609.28
2023-04-23T17:15:43.192Z,97600.56
2023-04-23T17:18:10.705Z,97601.88
2023-04-23T17:20:39.218Z,97609.09
2023-04-23T17:23:06.069Z,97605.19
2023-04-23T17:25:32.762Z,97608.28
2023-04-23T17:27:59.499Z,97605.72
2023-04-23T17:30:26.204Z,97604.38
2023-04-23T17:32:52.947Z,97604.50
2023-04-23T17:35:19.593Z,97603.72
2023-04-23T17:37:47.355Z,97592.44
2023-04-23T17:40:17.569Z,97603.75
2023-04-23T17:42:45.119Z,97606.88
2023-04-23T17:45:14.487Z,97609.34
2023-04-23T17:47:43.835Z,97612.72
2023-04-23T17:50:12.021Z,97617.91
2023-04-23T17:52:42.852Z,97624.59
2023-04-23T17:55:13.136Z,97626.91
2023-04-23T17:57:40.140Z,97624.03
2023-04-23T18:00:22.609Z,97628.69
2023-04-23T18:02:52.842Z,97630.28
2023-04-23T18:05:27.013Z,97618.72
2023-04-23T18:07:56.244Z,97620.34
2023-04-23T18:10:27.732Z,97627.44
2023-04-23T18:12:58.139Z,97630.84
2023-04-23T18:15:30.404Z,97619.84
2023-04-23T18:17:59.248Z,97620.94
2023-04-23T18:20:29.028Z,97636.44
2023-04-23T18:22:58.462Z,97642.69
2023-04-23T18:25:32.573Z,97651.84
2023-04-23T18:28:03.978Z,97642.94
2023-04-23T18:30:32.183Z,97635.63
2023-04-23T18:33:46.520Z,97653.69
2023-04-23T18:36:32.582Z,97651.81
2023-04-23T18:39:05.297Z,97637.25
2023-04-23T18:41:38.131Z,97638.06
2023-04-23T18:44:05.621Z,97644.88
2023-04-23T18:46:32.356Z,97644.75
2023-04-23T18:49:04.887Z,97649.66
2023-04-23T18:51:38.246Z,97659.63
2023-04-23T18:54:05.978Z,97669.69
2023-04-23T18:56:32.710Z,97666.00
2023-04-23T18:58:59.459Z,97667.22
2023-04-23T19:01:27.987Z,97660.94
2023-04-23T19:03:54.996Z,97658.22
2023-04-23T19:06:21.864Z,97658.22
2023-04-23T19:08:48.673Z,97658.22
2023-04-23T19:11:15.368Z,97662.31
2023-04-23T19:13:42.399Z,97664.66
2023-04-23T19:16:10.091Z,97663.03
2023-04-23T19:18:37.388Z,97667.09
2023-04-23T19:21:07.017Z,97667.22
2023-04-23T19:23:33.832Z,97663.69
2023-04-23T19:26:00.477Z,97659.34
2023-04-23T19:28:27.266Z,97660.69
2023-04-23T19:30:54.014Z,97665.34
2023-04-23T19:33:20.810Z,97656.22
2023-04-23T19:35:47.831Z,97667.38
2023-04-23T19:38:14.826Z,97652.75
2023-04-23T19:40:41.674Z,97672.81
2023-04-23T19:43:08.809Z,97660.31
2023-04-23T19:45:36.597Z,97658.63
2023-04-23T19:48:04.667Z,97647.59
2023-04-23T19:50:32.140Z,97657.94
2023-04-23T19:52:59.000Z,97655.75
2023-04-23T19:55:28.962Z,97655.88
2023-04-23T19:57:56.678Z,97657.78
2023-04-23T20:00:24.690Z,97667.44
2023-04-23T20:02:55.498Z,97666.75
2023-04-23T20:05:22.516Z,97659.69
2023-04-23T20:07:49.331Z,97656.44
2023-04-23T20:10:17.547Z,97659.28
2023-04-23T20:12:44.549Z,97664.16
2023-04-23T20:15:12.451Z,97660.91
2023-04-23T20:17:39.651Z,97664.44
2023-04-23T20:20:07.188Z,97664.28
2023-04-23T20:22:34.334Z,97666.31
2023-04-23T20:25:03.682Z,97657.88
2023-04-23T20:27:30.543Z,97649.56
2023-04-23T20:29:57.444Z,97654.56
2023-04-23T20:32:24.111Z,97655.91
2023-04-23T20:34:51.002Z,97663.25
2023-04-23T20:37:21.457Z,97669.78
2023-04-23T20:39:49.266Z,97666.84
2023-04-23T20:42:16.010Z,97654.50
2023-04-23T20:44:45.443Z,97647.28
2023-04-23T20:47:12.643Z,97668.56
2023-04-23T20:49:40.383Z,97667.56
2023-04-23T20:52:07.295Z,97665.19
2023-04-23T20:54:34.824Z,97660.50
2023-04-23T20:57:02.531Z,97660.41
2023-04-23T20:59:29.383Z,97668.50
2023-04-23T21:01:56.188Z,97663.56
2023-04-23T21:04:23.432Z,97661.16
2023-04-23T21:06:51.135Z,97661.34
2023-04-23T21:09:17.978Z,97655.84
2023-04-23T21:11:44.678Z,97650.28
2023-04-23T21:14:11.388Z,97650.41
2023-04-23T21:16:38.709Z,97651.09
2023-04-23T21:19:06.070Z,97658.72
2023-04-23T21:21:32.924Z,97638.44
2023-04-23T21:24:01.033Z,97649.97
2023-04-23T21:26:29.757Z,97654.50
2023-04-23T21:28:56.740Z,97645.50
2023-04-23T21:31:32.600Z,97648.25
2023-04-23T21:33:59.331Z,97646.47
2023-04-23T21:36:26.038Z,97637.94
2023-04-23T21:38:53.166Z,97642.66
2023-04-23T21:41:19.981Z,97630.53
2023-04-23T21:43:46.680Z,97634.09
2023-04-23T21:46:13.418Z,97634.38
2023-04-23T21:48:40.134Z,97639.25
2023-04-23T21:51:07.771Z,97639.66
2023-04-23T21:53:34.452Z,97639.13
2023-04-23T21:56:01.216Z,97644.44
2023-04-23T21:58:27.976Z,97643.59
2023-04-23T22:00:55.331Z,97633.53
2023-04-23T22:03:32.493Z,97635.78
2023-04-23T22:06:05.487Z,97634.81
2023-04-23T22:08:32.927Z,97635.59
2023-04-23T22:10:59.671Z,97621.72
2023-04-23T22:13:26.806Z,97627.59
2023-04-23T22:15:53.542Z,97633.31
2023-04-23T22:18:20.594Z,97627.78
2023-04-23T22:20:50.927Z,97641.38
2023-04-23T22:23:17.650Z,97639.09
2023-04-23T22:25:44.776Z,97628.22
2023-04-23T22:28:12.442Z,97626.84
2023-04-23T22:30:39.105Z,97631.47
2023-04-23T22:33:06.249Z,97623.41
2023-04-23T22:35:33.084Z,97626.66
2023-04-23T22:37:59.864Z,97625.75
2023-04-23T22:40:26.470Z,97628.66
2023-04-23T22:42:53.162Z,97620.84
2023-04-23T22:45:19.731Z,97620.69
2023-04-23T22:47:46.719Z,97619.06
2023-04-23T22:50:13.514Z,97613.38
2023-04-23T22:52:40.595Z,97610.44
2023-04-23T22:55:08.132Z,97606.13
2023-04-23T22:57:35.451Z,97598.63
2023-04-23T23:00:02.229Z,97592.75
2023-04-23T23:02:29.148Z,97602.97
2023-04-23T23:04:56.039Z,97602.84
2023-04-23T23:07:22.874Z,97596.75
2023-04-23T23:09:50.099Z,97592.47
2023-04-23T23:12:16.831Z,97584.91
2023-04-23T23:14:43.632Z,97584.06
2023-04-23T23:17:10.248Z,97581.63
2023-04-23T23:19:36.989Z,97561.88
2023-04-23T23:22:04.025Z,97575.31
2023-04-23T23:24:30.653Z,97567.25
2023-04-23T23:26:57.387Z,97582.59
2023-04-23T23:29:24.008Z,97577.66
2023-04-23T23:31:51.059Z,97581.50
2023-04-23T23:34:17.994Z,97578.00
2023-04-23T23:36:45.360Z,97570.91
2023-04-23T23:39:13.233Z,97555.44
2023-04-23T23:41:40.017Z,97550.88
2023-04-23T23:44:06.664Z,97555.78
2023-04-23T23:46:33.390Z,97557.41
2023-04-23T23:49:00.130Z,97552.84
2023-04-23T23:51:28.247Z,97549.78
2023-04-23T23:53:54.859Z,97550.94
2023-04-23T23:56:21.891Z,97542.44
2023-04-23T23:58:48.527Z,97547.81
